sensor_id;sensor_type;location;lat;lon;timestamp;pressure;altitude;pressure_sealevel;temperature;humidity
25638;BME280;13496;51.040;13.680;2024-01-16T00:04:48;98345.16;;;15.87;49.27
25638;BME280;13496;51.040;13.680;2024-01-16T00:09:50;98340.16;;;15.85;49.31
25638;BME280;13496;51.040;13.680;2024-01-16T00:14:54;98342.78;;;15.85;49.20
25638;BME280;13496;51.040;13.680;2024-01-16T00:19:56;98348.00;;;15.85;49.34
25638;BME280;13496;51.040;13.680;2024-01-16T00:25:02;98367.34;;;15.84;49.25
25638;BME280;13496;51.040;13.680;2024-01-16T00:30:04;98363.50;;;15.80;49.08
25638;BME280;13496;51.040;13.680;2024-01-16T00:35:07;98375.56;;;15.81;49.23
25638;BME280;13496;51.040;13.680;2024-01-16T00:40:09;98367.72;;;15.81;49.27
25638;BME280;13496;51.040;13.680;2024-01-16T00:45:11;98369.72;;;15.79;49.30
25638;BME280;13496;51.040;13.680;2024-01-16T00:50:13;98372.97;;;15.81;49.64
25638;BME280;13496;51.040;13.680;2024-01-16T00:55:15;98379.22;;;15.80;49.14
25638;BME280;13496;51.040;13.680;2024-01-16T01:00:16;98379.22;;;15.80;49.28
25638;BME280;13496;51.040;13.680;2024-01-16T01:05:18;98395.69;;;15.81;49.45
25638;BME280;13496;51.040;13.680;2024-01-16T01:10:20;98405.75;;;15.77;49.23
25638;BME280;13496;51.040;13.680;2024-01-16T01:15:22;98412.41;;;15.80;49.29
25638;BME280;13496;51.040;13.680;2024-01-16T01:20:24;98412.59;;;15.78;49.25
25638;BME280;13496;51.040;13.680;2024-01-16T01:25:26;98422.47;;;15.76;49.23
25638;BME280;13496;51.040;13.680;2024-01-16T01:30:27;98423.84;;;15.79;49.27
25638;BME280;13496;51.040;13.680;2024-01-16T01:35:29;98432.72;;;15.78;49.19
25638;BME280;13496;51.040;13.680;2024-01-16T01:40:31;98447.78;;;15.76;49.24
25638;BME280;13496;51.040;13.680;2024-01-16T01:45:33;98447.78;;;15.76;49.12
25638;BME280;13496;51.040;13.680;2024-01-16T01:50:34;98449.41;;;15.77;49.20
25638;BME280;13496;51.040;13.680;2024-01-16T01:55:36;98449.41;;;15.77;49.22
25638;BME280;13496;51.040;13.680;2024-01-16T02:00:38;98441.97;;;15.73;49.28
25638;BME280;13496;51.040;13.680;2024-01-16T02:05:40;98449.81;;;15.73;49.36
25638;BME280;13496;51.040;13.680;2024-01-16T02:10:43;98458.44;;;15.74;49.21
25638;BME280;13496;51.040;13.680;2024-01-16T02:15:47;98471.53;;;15.74;49.16
25638;BME280;13496;51.040;13.680;2024-01-16T02:20:49;98480.38;;;15.73;49.25
25638;BME280;13496;51.040;13.680;2024-01-16T02:25:51;98492.44;;;15.74;48.98
25638;BME280;13496;51.040;13.680;2024-01-16T02:30:53;98490.03;;;15.72;49.16
25638;BME280;13496;51.040;13.680;2024-01-16T02:35:55;98494.88;;;15.69;49.05
25638;BME280;13496;51.040;13.680;2024-01-16T02:40:56;98497.47;;;15.69;49.16
25638;BME280;13496;51.040;13.680;2024-01-16T02:45:58;98502.72;;;15.69;49.13
25638;BME280;13496;51.040;13.680;2024-01-16T02:51:00;98521.19;;;15.67;49.08
25638;BME280;13496;51.040;13.680;2024-01-16T02:56:02;98519.59;;;15.66;48.98
25638;BME280;13496;51.040;13.680;2024-01-16T03:01:04;98519.78;;;15.65;49.00
25638;BME280;13496;51.040;13.680;2024-01-16T03:06:05;98524.03;;;15.66;48.88
25638;BME280;13496;51.040;13.680;2024-01-16T03:11:07;98530.00;;;15.60;48.94
25638;BME280;13496;51.040;13.680;2024-01-16T03:16:12;98541.88;;;15.62;49.04
25638;BME280;13496;51.040;13.680;2024-01-16T03:21:14;98537.03;;;15.59;48.87
25638;BME280;13496;51.040;13.680;2024-01-16T03:26:16;98543.06;;;15.60;49.00
25638;BME280;13496;51.040;13.680;2024-01-16T03:31:18;98550.13;;;15.59;48.91
25638;BME280;13496;51.040;13.680;2024-01-16T03:36:22;98561.59;;;15.58;48.92
25638;BME280;13496;51.040;13.680;2024-01-16T03:41:24;98570.22;;;15.59;48.92
25638;BME280;13496;51.040;13.680;2024-01-16T03:46:26;98567.78;;;15.57;48.92
25638;BME280;13496;51.040;13.680;2024-01-16T03:51:28;98567.00;;;15.57;48.89
25638;BME280;13496;51.040;13.680;2024-01-16T03:56:30;98573.22;;;15.56;48.90
25638;BME280;13496;51.040;13.680;2024-01-16T04:01:33;98593.13;;;15.57;48.99
25638;BME280;13496;51.040;13.680;2024-01-16T04:06:34;98576.84;;;15.55;48.97
25638;BME280;13496;51.040;13.680;2024-01-16T04:11:36;98588.91;;;15.56;48.87
25638;BME280;13496;51.040;13.680;2024-01-16T04:16:38;98589.94;;;15.55;48.91
25638;BME280;13496;51.040;13.680;2024-01-16T04:21:40;98605.63;;;15.55;48.97
25638;BME280;13496;51.040;13.680;2024-01-16T04:26:42;98607.44;;;15.54;48.87
25638;BME280;13496;51.040;13.680;2024-01-16T04:31:44;98605.00;;;15.53;48.96
25638;BME280;13496;51.040;13.680;2024-01-16T04:36:46;98603.38;;;15.52;48.88
25638;BME280;13496;51.040;13.680;2024-01-16T04:41:49;98602.38;;;15.53;48.84
25638;BME280;13496;51.040;13.680;2024-01-16T04:46:51;98604.19;;;15.52;48.77
25638;BME280;13496;51.040;13.680;2024-01-16T04:51:54;98613.84;;;15.52;48.86
25638;BME280;13496;51.040;13.680;2024-01-16T04:56:56;98625.91;;;15.53;48.79
25638;BME280;13496;51.040;13.680;2024-01-16T05:01:58;98626.28;;;15.49;48.90
25638;BME280;13496;51.040;13.680;2024-01-16T05:07:00;98622.69;;;15.51;48.80
25638;BME280;13496;51.040;13.680;2024-01-16T05:12:01;98631.34;;;15.51;48.83
25638;BME280;13496;51.040;13.680;2024-01-16T05:17:03;98635.94;;;15.49;48.72
25638;BME280;13496;51.040;13.680;2024-01-16T05:22:05;98638.75;;;15.47;48.72
25638;BME280;13496;51.040;13.680;2024-01-16T05:27:07;98635.72;;;15.44;48.70
25638;BME280;13496;51.040;13.680;2024-01-16T05:32:10;98644.75;;;15.41;48.64
25638;BME280;13496;51.040;13.680;2024-01-16T05:37:12;98653.22;;;15.43;48.68
25638;BME280;13496;51.040;13.680;2024-01-16T05:42:14;98650.41;;;15.45;48.68
25638;BME280;13496;51.040;13.680;2024-01-16T05:47:16;98660.25;;;15.43;48.62
25638;BME280;13496;51.040;13.680;2024-01-16T05:52:18;98649.59;;;15.44;48.69
25638;BME280;13496;51.040;13.680;2024-01-16T05:57:20;98669.88;;;15.42;48.69
25638;BME280;13496;51.040;13.680;2024-01-16T06:02:21;98675.75;;;15.44;48.86
25638;BME280;13496;51.040;13.680;2024-01-16T06:07:23;98686.56;;;15.41;48.77
25638;BME280;13496;51.040;13.680;2024-01-16T06:12:25;98699.03;;;15.39;48.63
25638;BME280;13496;51.040;13.680;2024-01-16T06:17:27;98701.47;;;15.41;48.64
25638;BME280;13496;51.040;13.680;2024-01-16T06:22:28;98699.47;;;15.43;48.65
25638;BME280;13496;51.040;13.680;2024-01-16T06:27:30;98709.72;;;15.44;48.68
25638;BME280;13496;51.040;13.680;2024-01-16T06:32:32;98708.91;;;15.44;48.77
25638;BME280;13496;51.040;13.680;2024-01-16T06:37:34;98708.13;;;15.43;48.75
25638;BME280;13496;51.040;13.680;2024-01-16T06:42:36;98719.53;;;15.42;48.71
25638;BME280;13496;51.040;13.680;2024-01-16T06:47:37;98734.25;;;15.43;48.79
25638;BME280;13496;51.040;13.680;2024-01-16T06:52:39;98723.97;;;15.42;48.77
25638;BME280;13496;51.040;13.680;2024-01-16T06:57:41;98744.72;;;15.43;48.69
25638;BME280;13496;51.040;13.680;2024-01-16T07:02:43;98746.31;;;15.44;48.68
25638;BME280;13496;51.040;13.680;2024-01-16T07:07:45;98753.53;;;15.42;48.87
25638;BME280;13496;51.040;13.680;2024-01-16T07:12:47;98759.38;;;15.44;48.86
25638;BME280;13496;51.040;13.680;2024-01-16T07:17:51;98772.44;;;15.44;48.83
25638;BME280;13496;51.040;13.680;2024-01-16T07:22:52;98773.47;;;15.43;48.87
25638;BME280;13496;51.040;13.680;2024-01-16T07:27:54;98785.91;;;15.41;48.81
25638;BME280;13496;51.040;13.680;2024-01-16T07:32:56;98804.03;;;15.43;48.77
25638;BME280;13496;51.040;13.680;2024-01-16T07:37:58;98819.69;;;15.43;48.77
25638;BME280;13496;51.040;13.680;2024-01-16T07:42:59;98823.28;;;15.42;48.88
25638;BME280;13496;51.040;13.680;2024-01-16T07:48:01;98829.31;;;15.42;48.82
25638;BME280;13496;51.040;13.680;2024-01-16T07:53:03;98839.19;;;15.40;48.81
25638;BME280;13496;51.040;13.680;2024-01-16T07:58:05;98841.00;;;15.40;48.88
25638;BME280;13496;51.040;13.680;2024-01-16T08:03:08;98841.78;;;15.40;48.79
25638;BME280;13496;51.040;13.680;2024-01-16T08:08:13;98854.66;;;15.42;48.82
25638;BME280;13496;51.040;13.680;2024-01-16T08:13:15;98861.53;;;15.43;48.85
25638;BME280;13496;51.040;13.680;2024-01-16T08:18:17;98864.94;;;15.43;48.86
25638;BME280;13496;51.040;13.680;2024-01-16T08:23:19;98868.16;;;15.45;48.88
25638;BME280;13496;51.040;13.680;2024-01-16T08:28:22;98866.56;;;15.44;48.74
25638;BME280;13496;51.040;13.680;2024-01-16T08:33:26;98862.31;;;15.43;48.78
25638;BME280;13496;51.040;13.680;2024-01-16T08:38:28;98876.81;;;15.46;48.83
25638;BME280;13496;51.040;13.680;2024-01-16T08:43:29;98867.69;;;15.63;48.57
25638;BME280;13496;51.040;13.680;2024-01-16T08:48:31;98875.47;;;15.57;48.42
25638;BME280;13496;51.040;13.680;2024-01-16T08:53:33;98878.50;;;15.54;48.60
25638;BME280;13496;51.040;13.680;2024-01-16T08:58:36;98890.94;;;15.52;48.56
25638;BME280;13496;51.040;13.680;2024-01-16T09:03:39;98889.94;;;15.53;48.61
25638;BME280;13496;51.040;13.680;2024-01-16T09:08:40;98903.22;;;15.51;48.39
25638;BME280;13496;51.040;13.680;2024-01-16T09:13:42;98897.34;;;15.49;48.69
25638;BME280;13496;51.040;13.680;2024-01-16T09:18:45;98918.69;;;15.53;48.63
25638;BME280;13496;51.040;13.680;2024-01-16T09:23:47;98908.88;;;15.55;48.60
25638;BME280;13496;51.040;13.680;2024-01-16T09:28:49;98919.13;;;15.56;48.61
25638;BME280;13496;51.040;13.680;2024-01-16T09:33:51;98915.50;;;15.57;48.41
25638;BME280;13496;51.040;13.680;2024-01-16T09:38:52;98917.16;;;15.58;48.54
25638;BME280;13496;51.040;13.680;2024-01-16T09:43:54;98919.94;;;15.57;48.66
25638;BME280;13496;51.040;13.680;2024-01-16T09:48:57;98926.41;;;15.61;48.61
25638;BME280;13496;51.040;13.680;2024-01-16T09:54:00;98922.59;;;15.63;48.57
25638;BME280;13496;51.040;13.680;2024-01-16T09:59:05;98917.03;;;15.66;48.56
25638;BME280;13496;51.040;13.680;2024-01-16T10:04:07;98919.44;;;15.68;48.53
25638;BME280;13496;51.040;13.680;2024-01-16T10:09:09;98919.28;;;15.69;48.50
25638;BME280;13496;51.040;13.680;2024-01-16T10:14:14;98921.09;;;15.69;48.52
25638;BME280;13496;51.040;13.680;2024-01-16T10:19:16;98924.31;;;15.71;48.41
25638;BME280;13496;51.040;13.680;2024-01-16T10:24:18;98935.56;;;15.71;48.47
25638;BME280;13496;51.040;13.680;2024-01-16T10:29:20;98935.78;;;15.70;48.53
25638;BME280;13496;51.040;13.680;2024-01-16T10:34:22;98936.56;;;15.70;48.54
25638;BME280;13496;51.040;13.680;2024-01-16T10:39:24;98941.44;;;15.73;48.48
25638;BME280;13496;51.040;13.680;2024-01-16T10:44:26;98939.81;;;15.72;48.61
25638;BME280;13496;51.040;13.680;2024-01-16T10:49:29;98942.88;;;15.76;48.46
25638;BME280;13496;51.040;13.680;2024-01-16T10:54:32;98929.16;;;15.74;48.35
25638;BME280;13496;51.040;13.680;2024-01-16T10:59:55;98940.06;;;15.78;48.44
25638;BME280;13496;51.040;13.680;2024-01-16T11:05:03;98942.25;;;15.74;48.51
25638;BME280;13496;51.040;13.680;2024-01-16T11:10:07;98924.56;;;15.76;48.43
25638;BME280;13496;51.040;13.680;2024-01-16T11:15:10;98935.81;;;15.77;48.48
25638;BME280;13496;51.040;13.680;2024-01-16T11:20:14;98937.22;;;15.79;48.40
25638;BME280;13496;51.040;13.680;2024-01-16T11:25:17;98920.94;;;15.77;48.37
25638;BME280;13496;51.040;13.680;2024-01-16T11:30:32;98933.00;;;15.78;48.43
25638;BME280;13496;51.040;13.680;2024-01-16T11:35:37;98934.19;;;15.76;48.42
25638;BME280;13496;51.040;13.680;2024-01-16T11:40:39;98927.78;;;15.78;48.34
25638;BME280;13496;51.040;13.680;2024-01-16T11:45:48;98929.38;;;15.79;48.52
25638;BME280;13496;51.040;13.680;2024-01-16T11:50:52;98923.34;;;15.79;48.41
25638;BME280;13496;51.040;13.680;2024-01-16T12:01:14;98923.97;;;15.81;48.37
25638;BME280;13496;51.040;13.680;2024-01-16T12:06:17;98921.38;;;15.81;48.50
25638;BME280;13496;51.040;13.680;2024-01-16T12:11:19;98923.19;;;15.80;48.47
25638;BME280;13496;51.040;13.680;2024-01-16T12:16:21;98923.78;;;15.82;48.52
25638;BME280;13496;51.040;13.680;2024-01-16T12:21:23;98916.13;;;15.81;48.51
25638;BME280;13496;51.040;13.680;2024-01-16T12:26:25;98914.94;;;15.83;48.51
25638;BME280;13496;51.040;13.680;2024-01-16T12:31:27;98918.56;;;15.82;48.61
25638;BME280;13496;51.040;13.680;2024-01-16T12:36:29;98913.69;;;15.79;48.55
25638;BME280;13496;51.040;13.680;2024-01-16T12:41:41;98925.78;;;15.80;48.50
25638;BME280;13496;51.040;13.680;2024-01-16T12:46:53;98914.09;;;15.76;48.51
25638;BME280;13496;51.040;13.680;2024-01-16T12:52:14;98909.47;;;15.78;48.52
25638;BME280;13496;51.040;13.680;2024-01-16T12:57:17;98906.06;;;15.78;48.65
25638;BME280;13496;51.040;13.680;2024-01-16T13:02:24;98899.22;;;15.77;48.73
25638;BME280;13496;51.040;13.680;2024-01-16T13:07:26;98898.84;;;15.80;48.87
25638;BME280;13496;51.040;13.680;2024-01-16T13:12:28;98898.00;;;15.79;48.61
25638;BME280;13496;51.040;13.680;2024-01-16T13:17:35;98901.63;;;15.78;48.56
25638;BME280;13496;51.040;13.680;2024-01-16T13:22:37;98905.84;;;15.79;48.50
25638;BME280;13496;51.040;13.680;2024-01-16T13:27:38;98898.00;;;15.79;48.55
25638;BME280;13496;51.040;13.680;2024-01-16T13:32:40;98900.44;;;15.81;48.59
25638;BME280;13496;51.040;13.680;2024-01-16T13:37:42;98895.38;;;15.79;48.81
25638;BME280;13496;51.040;13.680;2024-01-16T13:42:44;98904.06;;;15.80;48.62
25638;BME280;13496;51.040;13.680;2024-01-16T13:47:49;98905.03;;;15.79;48.69
25638;BME280;13496;51.040;13.680;2024-01-16T13:52:51;98909.31;;;15.80;48.67
25638;BME280;13496;51.040;13.680;2024-01-16T13:57:53;98906.69;;;15.80;48.70
25638;BME280;13496;51.040;13.680;2024-01-16T14:02:55;98906.47;;;15.81;48.77
25638;BME280;13496;51.040;13.680;2024-01-16T14:07:56;98889.97;;;15.81;48.68
25638;BME280;13496;51.040;13.680;2024-01-16T14:12:59;98885.56;;;15.81;48.60
25638;BME280;13496;51.040;13.680;2024-01-16T14:18:01;98889.19;;;15.80;48.79
25638;BME280;13496;51.040;13.680;2024-01-16T14:23:04;98889.19;;;15.80;48.55
25638;BME280;13496;51.040;13.680;2024-01-16T14:28:06;98904.06;;;15.80;48.60
25638;BME280;13496;51.040;13.680;2024-01-16T14:33:08;98892.97;;;15.78;48.71
25638;BME280;13496;51.040;13.680;2024-01-16T14:38:10;98895.59;;;15.78;48.63
25638;BME280;13496;51.040;13.680;2024-01-16T14:43:12;98895.38;;;15.79;48.72
25638;BME280;13496;51.040;13.680;2024-01-16T14:48:15;98894.59;;;15.79;48.70
25638;BME280;13496;51.040;13.680;2024-01-16T14:53:18;98903.63;;;15.76;48.78
25638;BME280;13496;51.040;13.680;2024-01-16T14:58:20;98889.94;;;15.74;48.79
25638;BME280;13496;51.040;13.680;2024-01-16T15:03:24;98896.78;;;15.75;48.77
25638;BME280;13496;51.040;13.680;2024-01-16T15:08:27;98892.53;;;15.74;48.80
25638;BME280;13496;51.040;13.680;2024-01-16T15:13:30;98891.13;;;15.71;48.92
25638;BME280;13496;51.040;13.680;2024-01-16T15:18:31;98892.75;;;15.72;48.81
25638;BME280;13496;51.040;13.680;2024-01-16T15:23:34;98902.19;;;15.73;48.90
25638;BME280;13496;51.040;13.680;2024-01-16T15:28:35;98900.78;;;15.71;48.99
25638;BME280;13496;51.040;13.680;2024-01-16T15:33:37;98905.19;;;15.70;48.94
25638;BME280;13496;51.040;13.680;2024-01-16T15:38:39;98906.00;;;15.71;48.93
25638;BME280;13496;51.040;13.680;2024-01-16T15:43:44;98901.13;;;15.68;49.04
25638;BME280;13496;51.040;13.680;2024-01-16T15:48:46;98907.00;;;15.70;49.20
25638;BME280;13496;51.040;13.680;2024-01-16T15:53:48;98904.38;;;15.70;49.09
25638;BME280;13496;51.040;13.680;2024-01-16T15:58:49;98906.19;;;15.69;49.20
25638;BME280;13496;51.040;13.680;2024-01-16T16:03:51;98916.84;;;15.68;49.13
25638;BME280;13496;51.040;13.680;2024-01-16T16:08:53;98913.63;;;15.66;49.10
25638;BME280;13496;51.040;13.680;2024-01-16T16:13:55;98912.81;;;15.65;49.17
25638;BME280;13496;51.040;13.680;2024-01-16T16:18:58;98921.47;;;15.66;49.16
25638;BME280;13496;51.040;13.680;2024-01-16T16:24:00;98919.81;;;15.65;49.16
25638;BME280;13496;51.040;13.680;2024-01-16T16:29:04;98918.84;;;15.66;49.34
25638;BME280;13496;51.040;13.680;2024-01-16T16:34:11;98929.66;;;15.63;49.25
25638;BME280;13496;51.040;13.680;2024-01-16T16:39:13;98922.81;;;15.62;49.27
25638;BME280;13496;51.040;13.680;2024-01-16T16:44:18;98940.91;;;15.63;49.30
25638;BME280;13496;51.040;13.680;2024-01-16T16:49:20;98947.94;;;15.63;49.30
25638;BME280;13496;51.040;13.680;2024-01-16T16:54:21;98948.16;;;15.61;49.11
25638;BME280;13496;51.040;13.680;2024-01-16T16:59:23;98942.72;;;15.63;49.26
25638;BME280;13496;51.040;13.680;2024-01-16T17:04:25;98955.78;;;15.63;49.37
25638;BME280;13496;51.040;13.680;2024-01-16T17:09:27;98946.34;;;15.62;49.25
25638;BME280;13496;51.040;13.680;2024-01-16T17:14:29;98944.69;;;15.61;49.33
25638;BME280;13496;51.040;13.680;2024-01-16T17:19:31;98932.63;;;15.60;49.26
25638;BME280;13496;51.040;13.680;2024-01-16T17:24:32;98942.09;;;15.61;49.24
25638;BME280;13496;51.040;13.680;2024-01-16T17:29:36;98942.09;;;15.61;49.34
25638;BME280;13496;51.040;13.680;2024-01-16T17:34:40;98936.25;;;15.59;49.35
25638;BME280;13496;51.040;13.680;2024-01-16T17:39:42;98934.88;;;15.63;49.36
25638;BME280;13496;51.040;13.680;2024-01-16T17:44:48;98929.53;;;15.71;49.17
25638;BME280;13496;51.040;13.680;2024-01-16T17:49:50;98937.22;;;15.79;48.94
25638;BME280;13496;51.040;13.680;2024-01-16T17:54:52;98931.47;;;15.84;48.92
25638;BME280;13496;51.040;13.680;2024-01-16T17:59:54;98934.31;;;15.89;48.95
25638;BME280;13496;51.040;13.680;2024-01-16T18:04:56;98938.78;;;15.95;48.77
25638;BME280;13496;51.040;13.680;2024-01-16T18:09:58;98944.44;;;15.99;48.62
25638;BME280;13496;51.040;13.680;2024-01-16T18:15:00;98946.66;;;16.02;48.83
25638;BME280;13496;51.040;13.680;2024-01-16T18:20:02;98943.47;;;16.06;48.75
25638;BME280;13496;51.040;13.680;2024-01-16T18:25:06;98947.50;;;16.09;48.96
25638;BME280;13496;51.040;13.680;2024-01-16T18:30:11;98943.34;;;16.14;49.13
25638;BME280;13496;51.040;13.680;2024-01-16T18:35:24;98949.59;;;16.20;49.24
25638;BME280;13496;51.040;13.680;2024-01-16T18:40:26;98951.59;;;16.18;49.24
25638;BME280;13496;51.040;13.680;2024-01-16T18:45:28;98954.22;;;16.18;49.43
25638;BME280;13496;51.040;13.680;2024-01-16T18:50:30;98946.38;;;16.18;49.53
25638;BME280;13496;51.040;13.680;2024-01-16T18:55:35;98939.31;;;16.18;49.57
25638;BME280;13496;51.040;13.680;2024-01-16T19:00:38;98941.75;;;16.20;49.73
25638;BME280;13496;51.040;13.680;2024-01-16T19:05:40;98938.16;;;16.21;49.73
25638;BME280;13496;51.040;13.680;2024-01-16T19:10:41;98933.09;;;16.19;49.70
25638;BME280;13496;51.040;13.680;2024-01-16T19:15:43;98942.16;;;16.17;49.74
25638;BME280;13496;51.040;13.680;2024-01-16T19:20:45;98942.31;;;16.15;49.91
25638;BME280;13496;51.040;13.680;2024-01-16T19:25:47;98942.53;;;16.14;49.93
25638;BME280;13496;51.040;13.680;2024-01-16T19:30:49;98940.09;;;16.12;49.91
25638;BME280;13496;51.040;13.680;2024-01-16T19:35:53;98939.28;;;16.12;49.88
25638;BME280;13496;51.040;13.680;2024-01-16T19:40:54;98942.09;;;16.10;49.86
25638;BME280;13496;51.040;13.680;2024-01-16T19:45:56;98939.66;;;16.09;50.04
25638;BME280;13496;51.040;13.680;2024-01-16T19:50:59;98932.81;;;16.08;49.98
25638;BME280;13496;51.040;13.680;2024-01-16T19:56:01;98929.19;;;16.09;50.42
25638;BME280;13496;51.040;13.680;2024-01-16T20:01:06;98933.25;;;16.11;50.38
25638;BME280;13496;51.040;13.680;2024-01-16T20:06:12;98918.94;;;16.07;50.49
25638;BME280;13496;51.040;13.680;2024-01-16T20:11:14;98922.72;;;16.05;50.33
25638;BME280;13496;51.040;13.680;2024-01-16T20:16:17;98922.72;;;16.05;50.42
25638;BME280;13496;51.040;13.680;2024-01-16T20:21:19;98923.94;;;16.02;50.54
25638;BME280;13496;51.040;13.680;2024-01-16T20:26:21;98917.88;;;16.02;50.51
25638;BME280;13496;51.040;13.680;2024-01-16T20:31:23;98924.13;;;16.01;50.57
25638;BME280;13496;51.040;13.680;2024-01-16T20:36:25;98921.88;;;15.97;50.70
25638;BME280;13496;51.040;13.680;2024-01-16T20:41:27;98921.06;;;15.97;50.89
25638;BME280;13496;51.040;13.680;2024-01-16T20:46:29;98923.88;;;15.95;50.65
25638;BME280;13496;51.040;13.680;2024-01-16T20:51:30;98927.69;;;15.93;50.99
25638;BME280;13496;51.040;13.680;2024-01-16T20:56:32;98931.91;;;15.94;50.79
25638;BME280;13496;51.040;13.680;2024-01-16T21:01:34;98929.50;;;15.92;51.01
25638;BME280;13496;51.040;13.680;2024-01-16T21:06:36;98923.25;;;15.93;50.80
25638;BME280;13496;51.040;13.680;2024-01-16T21:11:43;98919.41;;;15.89;51.14
25638;BME280;13496;51.040;13.680;2024-01-16T21:16:45;98918.59;;;15.89;51.20
25638;BME280;13496;51.040;13.680;2024-01-16T21:21:48;98916.19;;;15.87;51.13
25638;BME280;13496;51.040;13.680;2024-01-16T21:26:52;98914.56;;;15.86;51.12
25638;BME280;13496;51.040;13.680;2024-01-16T21:31:54;98913.56;;;15.87;51.06
25638;BME280;13496;51.040;13.680;2024-01-16T21:36:58;98909.31;;;15.86;51.07
25638;BME280;13496;51.040;13.680;2024-01-16T21:42:00;98907.09;;;15.83;51.34
25638;BME280;13496;51.040;13.680;2024-01-16T21:47:01;98903.50;;;15.84;51.20
25638;BME280;13496;51.040;13.680;2024-01-16T21:52:04;98904.47;;;15.83;51.29
25638;BME280;13496;51.040;13.680;2024-01-16T21:57:07;98904.47;;;15.83;51.25
25638;BME280;13496;51.040;13.680;2024-01-16T22:02:09;98897.63;;;15.82;51.38
25638;BME280;13496;51.040;13.680;2024-01-16T22:07:11;98901.25;;;15.81;51.32
25638;BME280;13496;51.040;13.680;2024-01-16T22:12:13;98907.50;;;15.80;51.39
25638;BME280;13496;51.040;13.680;2024-01-16T22:17:15;98905.84;;;15.79;51.36
25638;BME280;13496;51.040;13.680;2024-01-16T22:22:18;98906.06;;;15.78;51.28
25638;BME280;13496;51.040;13.680;2024-01-16T22:27:20;98902.63;;;15.77;51.35
25638;BME280;13496;51.040;13.680;2024-01-16T22:32:22;98891.16;;;15.78;51.30
25638;BME280;13496;51.040;13.680;2024-01-16T22:37:24;98886.94;;;15.77;51.29
25638;BME280;13496;51.040;13.680;2024-01-16T22:42:27;98873.22;;;15.75;51.34
25638;BME280;13496;51.040;13.680;2024-01-16T22:47:29;98854.94;;;15.75;51.30
25638;BME280;13496;51.040;13.680;2024-01-16T22:52:31;98844.84;;;15.72;51.35
25638;BME280;13496;51.040;13.680;2024-01-16T22:57:33;98840.25;;;15.74;51.20
25638;BME280;13496;51.040;13.680;2024-01-16T23:02:34;98819.31;;;15.74;51.32
25638;BME280;13496;51.040;13.680;2024-01-16T23:07:36;98810.84;;;15.72;51.23
25638;BME280;13496;51.040;13.680;2024-01-16T23:12:38;98806.63;;;15.71;51.27
25638;BME280;13496;51.040;13.680;2024-01-16T23:17:40;98796.97;;;15.71;51.41
25638;BME280;13496;51.040;13.680;2024-01-16T23:22:42;98789.94;;;15.72;51.14
25638;BME280;13496;51.040;13.680;2024-01-16T23:27:44;98774.44;;;15.70;51.38
25638;BME280;13496;51.040;13.680;2024-01-16T23:32:50;98761.56;;;15.69;51.20
25638;BME280;13496;51.040;13.680;2024-01-16T23:37:53;98753.72;;;15.69;51.30
25638;BME280;13496;51.040;13.680;2024-01-16T23:42:57;98739.84;;;15.68;51.20
25638;BME280;13496;51.040;13.680;2024-01-16T23:47:59;98738.22;;;15.67;51.28
25638;BME280;13496;51.040;13.680;2024-01-16T23:53:01;98731.38;;;15.66;51.20
25638;BME280;13496;51.040;13.680;2024-01-16T23:58:03;98748.88;;;15.66;51.17
